createdAt,value
2019-02-23T00:01:12.730Z,3.23
2019-02-23T00:03:40.692Z,3.30
2019-02-23T00:06:07.367Z,3.33
2019-02-23T00:08:34.015Z,3.13
2019-02-23T00:11:00.639Z,3.77
2019-02-23T00:13:27.478Z,3.87
2019-02-23T00:15:54.041Z,3.77
2019-02-23T00:18:20.802Z,3.67
2019-02-23T00:20:47.517Z,3.50
2019-02-23T00:23:14.455Z,3.97
2019-02-23T00:25:41.986Z,3.83
2019-02-23T00:28:08.596Z,3.63
2019-02-23T00:30:35.292Z,3.67
2019-02-23T00:33:01.991Z,3.43
2019-02-23T00:35:28.730Z,3.20
2019-02-23T00:37:55.331Z,3.30
2019-02-23T00:40:21.934Z,3.67
2019-02-23T00:42:48.817Z,4.70
2019-02-23T00:45:15.484Z,3.08
2019-02-23T00:47:42.408Z,4.30
2019-02-23T00:50:09.308Z,3.30
2019-02-23T00:52:36.062Z,3.20
2019-02-23T00:55:03.094Z,3.03
2019-02-23T00:57:30.075Z,3.40
2019-02-23T00:59:57.109Z,3.40
2019-02-23T01:02:23.759Z,3.13
2019-02-23T01:04:50.801Z,2.87
2019-02-23T01:07:17.799Z,4.30
2019-02-23T01:09:44.420Z,3.30
2019-02-23T01:12:12.327Z,3.25
2019-02-23T01:14:39.617Z,3.23
2019-02-23T01:17:06.236Z,4.30
2019-02-23T01:19:34.245Z,3.23
2019-02-23T01:22:02.055Z,3.27
2019-02-23T01:24:29.780Z,2.20
2019-02-23T01:26:56.520Z,4.40
2019-02-23T01:29:23.422Z,2.80
2019-02-23T01:31:50.232Z,3.35
2019-02-23T01:34:16.900Z,3.27
2019-02-23T01:36:43.865Z,4.57
2019-02-23T01:39:12.080Z,2.92
2019-02-23T01:41:38.818Z,2.63
2019-02-23T01:44:05.493Z,2.93
2019-02-23T01:46:33.205Z,3.23
2019-02-23T01:48:59.935Z,2.53
2019-02-23T01:51:26.595Z,2.70
2019-02-23T01:53:53.287Z,2.30
2019-02-23T01:56:21.036Z,2.80
2019-02-23T01:58:47.682Z,2.87
2019-02-23T02:01:14.460Z,2.53
2019-02-23T02:03:42.923Z,2.66
2019-02-23T02:06:09.678Z,2.43
2019-02-23T02:08:36.599Z,2.80
2019-02-23T02:11:04.282Z,3.13
2019-02-23T02:13:31.921Z,2.40
2019-02-23T02:15:58.862Z,2.30
2019-02-23T02:18:25.522Z,2.30
2019-02-23T02:20:52.216Z,2.30
2019-02-23T02:23:19.054Z,2.43
2019-02-23T02:25:45.692Z,2.70
2019-02-23T02:28:12.331Z,3.10
2019-02-23T02:30:39.298Z,3.17
2019-02-23T02:33:05.876Z,2.77
2019-02-23T02:35:33.290Z,4.17
2019-02-23T02:37:59.960Z,2.97
2019-02-23T02:40:26.649Z,2.87
2019-02-23T02:42:53.324Z,2.83
2019-02-23T02:45:19.916Z,3.60
2019-02-23T02:50:24.294Z,3.20
2019-02-23T02:52:44.363Z,3.13
2019-02-23T02:55:11.105Z,3.63
2019-02-23T02:57:37.808Z,3.73
2019-02-23T03:00:04.457Z,5.07
2019-02-23T03:02:31.735Z,3.90
2019-02-23T03:04:58.810Z,2.37
2019-02-23T03:07:25.474Z,2.87
2019-02-23T03:09:52.610Z,3.10
2019-02-23T03:12:19.628Z,2.90
2019-02-23T03:14:46.487Z,4.80
2019-02-23T03:17:14.850Z,2.60
2019-02-23T03:19:41.558Z,2.87
2019-02-23T03:22:08.448Z,2.58
2019-02-23T03:24:35.179Z,2.60
2019-02-23T03:27:01.774Z,2.70
2019-02-23T03:29:28.536Z,2.30
2019-02-23T03:31:55.489Z,2.70
2019-02-23T03:34:22.292Z,2.70
2019-02-23T03:36:48.973Z,2.70
2019-02-23T03:39:15.656Z,2.80
2019-02-23T03:41:42.554Z,2.70
2019-02-23T03:44:09.171Z,2.60
2019-02-23T03:46:36.244Z,3.10
2019-02-23T03:49:03.007Z,2.97
2019-02-23T03:51:29.882Z,2.83
2019-02-23T03:53:56.578Z,5.37
2019-02-23T03:56:23.208Z,3.60
2019-02-23T03:58:50.360Z,2.87
2019-02-23T04:01:16.989Z,3.17
2019-02-23T04:03:45.602Z,4.02
2019-02-23T04:06:12.207Z,3.40
2019-02-23T04:08:39.194Z,5.28
2019-02-23T04:11:06.221Z,3.77
2019-02-23T04:13:32.799Z,5.73
2019-02-23T04:15:59.467Z,4.83
2019-02-23T04:18:26.269Z,3.17
2019-02-23T04:21:01.142Z,3.17
2019-02-23T04:23:21.635Z,2.70
2019-02-23T04:25:49.352Z,3.40
2019-02-23T04:28:16.503Z,4.57
2019-02-23T04:30:43.597Z,4.23
2019-02-23T04:33:10.532Z,3.50
2019-02-23T04:35:37.239Z,4.70
2019-02-23T04:38:03.967Z,5.70
2019-02-23T04:40:30.635Z,2.80
2019-02-23T04:42:57.506Z,3.20
2019-02-23T04:45:24.246Z,4.12
2019-02-23T04:47:50.905Z,2.90
2019-02-23T04:50:17.793Z,5.93
2019-02-23T04:52:46.199Z,3.22
2019-02-23T04:55:12.848Z,3.63
2019-02-23T04:57:39.470Z,3.03
2019-02-23T05:00:08.668Z,3.77
2019-02-23T05:02:35.294Z,3.30
2019-02-23T05:05:02.061Z,3.90
2019-02-23T05:07:28.697Z,4.03
2019-02-23T05:09:55.425Z,2.97
2019-02-23T05:12:22.119Z,3.77
2019-02-23T05:14:48.815Z,3.03
2019-02-23T05:17:16.660Z,3.17
2019-02-23T05:19:43.377Z,5.73
2019-02-23T05:22:10.277Z,2.70
2019-02-23T05:24:36.979Z,3.83
2019-02-23T05:27:03.948Z,2.73
2019-02-23T05:29:30.721Z,4.03
2019-02-23T05:31:57.604Z,2.83
2019-02-23T05:34:24.418Z,3.10
2019-02-23T05:36:51.046Z,4.28
2019-02-23T05:39:17.940Z,3.80
2019-02-23T05:41:44.658Z,5.60
2019-02-23T05:44:11.553Z,5.23
2019-02-23T05:46:38.572Z,4.75
2019-02-23T05:49:05.414Z,6.23
2019-02-23T05:51:38.796Z,5.10
2019-02-23T05:54:00.636Z,4.20
2019-02-23T05:56:27.413Z,2.80
2019-02-23T05:58:54.005Z,3.63
2019-02-23T06:01:20.817Z,3.65
2019-02-23T06:03:47.758Z,3.47
2019-02-23T06:06:14.416Z,5.13
2019-02-23T06:08:41.118Z,3.10
2019-02-23T06:11:08.070Z,5.60
2019-02-23T06:13:35.020Z,4.20
2019-02-23T06:16:03.553Z,3.55
2019-02-23T06:18:30.451Z,4.40
2019-02-23T06:20:57.158Z,4.07
2019-02-23T06:23:24.244Z,4.50
2019-02-23T06:25:51.281Z,4.28
2019-02-23T06:28:18.191Z,3.97
2019-02-23T06:30:45.169Z,7.47
2019-02-23T06:33:11.758Z,4.37
2019-02-23T06:35:38.487Z,5.63
2019-02-23T06:38:05.382Z,4.07
2019-02-23T06:40:32.236Z,3.90
2019-02-23T06:42:58.972Z,4.37
2019-02-23T06:45:25.634Z,5.00
2019-02-23T06:47:53.688Z,5.07
2019-02-23T06:50:20.614Z,5.08
2019-02-23T06:52:48.022Z,4.72
2019-02-23T06:55:14.752Z,4.57
2019-02-23T06:57:41.687Z,5.47
2019-02-23T07:00:09.474Z,4.67
2019-02-23T07:02:36.090Z,5.47
2019-02-23T07:05:06.907Z,3.60
2019-02-23T07:07:33.879Z,5.00
2019-02-23T07:10:00.791Z,4.58
2019-02-23T07:12:27.405Z,3.00
2019-02-23T07:14:54.015Z,3.10
2019-02-23T07:17:21.013Z,2.85
2019-02-23T07:19:48.332Z,4.17
2019-02-23T07:22:15.970Z,7.43
2019-02-23T07:24:42.702Z,3.93
2019-02-23T07:27:09.386Z,4.13
2019-02-23T07:29:36.200Z,3.33
2019-02-23T07:32:03.134Z,3.22
2019-02-23T07:34:29.742Z,3.50
2019-02-23T07:36:56.400Z,3.63
2019-02-23T07:39:23.303Z,5.15
2019-02-23T07:41:50.048Z,6.73
2019-02-23T07:44:18.275Z,3.27
2019-02-23T07:46:45.020Z,2.17
2019-02-23T07:49:11.718Z,2.43
2019-02-23T07:51:38.597Z,2.30
2019-02-23T07:54:07.029Z,3.03
2019-02-23T07:56:35.156Z,2.83
2019-02-23T07:59:02.145Z,2.23
2019-02-23T08:01:28.893Z,3.90
2019-02-23T08:03:55.787Z,2.83
2019-02-23T08:06:22.698Z,5.60
2019-02-23T08:08:49.323Z,2.40
2019-02-23T08:11:16.057Z,2.70
2019-02-23T08:13:42.901Z,2.70
2019-02-23T08:16:09.899Z,2.43
2019-02-23T08:18:36.795Z,2.30
2019-02-23T08:21:03.444Z,2.40
2019-02-23T08:23:30.102Z,2.77
2019-02-23T08:25:56.984Z,1.70
2019-02-23T08:28:23.790Z,1.72
2019-02-23T08:30:50.436Z,4.03
2019-02-23T08:33:17.413Z,2.23
2019-02-23T08:35:44.245Z,2.20
2019-02-23T08:38:11.141Z,2.10
2019-02-23T08:40:37.905Z,4.50
2019-02-23T08:43:04.603Z,5.93
2019-02-23T08:45:31.291Z,7.20
2019-02-23T08:47:57.927Z,4.93
2019-02-23T08:50:24.519Z,11.13
2019-02-23T08:52:51.167Z,6.47
2019-02-23T08:55:17.850Z,4.70
2019-02-23T08:57:44.806Z,5.53
2019-02-23T09:00:11.705Z,5.27
2019-02-23T09:02:38.826Z,3.47
2019-02-23T09:05:05.776Z,3.73
2019-02-23T09:07:32.862Z,4.40
2019-02-23T09:09:59.764Z,6.00
2019-02-23T09:12:26.502Z,3.73
2019-02-23T09:14:53.161Z,4.70
2019-02-23T09:17:20.395Z,3.80
2019-02-23T09:19:47.007Z,3.73
2019-02-23T09:22:29.914Z,3.60
2019-02-23T09:24:56.615Z,3.50
2019-02-23T09:27:23.471Z,6.63
2019-02-23T09:29:50.650Z,5.60
2019-02-23T09:32:17.323Z,5.27
2019-02-23T09:34:44.135Z,5.00
2019-02-23T09:37:11.048Z,5.67
2019-02-23T09:39:37.687Z,4.83
2019-02-23T09:42:07.362Z,5.20
2019-02-23T09:44:33.237Z,3.30
2019-02-23T09:47:00.133Z,3.33
2019-02-23T09:49:26.791Z,3.07
2019-02-23T09:51:53.542Z,3.33
2019-02-23T09:54:20.806Z,3.20
2019-02-23T09:56:47.455Z,2.90
2019-02-23T09:59:14.365Z,3.80
2019-02-23T10:01:41.066Z,3.10
2019-02-23T10:04:07.898Z,2.83
2019-02-23T10:06:34.531Z,2.33
2019-02-23T10:09:01.173Z,7.83
2019-02-23T10:11:27.828Z,2.30
2019-02-23T10:13:54.662Z,1.95
2019-02-23T10:16:21.279Z,1.90
2019-02-23T10:18:48.071Z,1.87
2019-02-23T10:21:14.801Z,2.57
2019-02-23T10:23:41.673Z,2.22
2019-02-23T10:26:08.428Z,2.23
2019-02-23T10:28:35.152Z,2.23
2019-02-23T10:31:01.881Z,1.90
2019-02-23T10:33:28.590Z,2.43
2019-02-23T10:35:55.252Z,2.05
2019-02-23T10:38:22.007Z,1.90
2019-02-23T10:40:48.990Z,2.02
2019-02-23T10:43:15.730Z,3.67
2019-02-23T10:45:42.360Z,1.57
2019-02-23T10:48:12.863Z,2.45
2019-02-23T10:50:43.721Z,2.20
2019-02-23T10:53:10.321Z,1.87
2019-02-23T10:55:40.770Z,1.80
2019-02-23T10:58:09.266Z,2.00
2019-02-23T11:00:37.178Z,1.53
2019-02-23T11:03:03.839Z,2.13
2019-02-23T11:05:30.749Z,2.10
2019-02-23T11:07:57.494Z,2.00
2019-02-23T11:10:24.192Z,1.80
2019-02-23T11:12:52.023Z,1.65
2019-02-23T11:15:18.683Z,1.83
2019-02-23T11:17:45.586Z,1.65
2019-02-23T11:20:12.243Z,2.50
2019-02-23T11:22:39.293Z,1.40
2019-02-23T11:25:06.306Z,2.27
2019-02-23T11:27:33.219Z,4.27
2019-02-23T11:30:00.021Z,2.08
2019-02-23T11:32:27.199Z,2.60
2019-02-23T11:34:53.917Z,4.30
2019-02-23T11:37:22.219Z,3.58
2019-02-23T11:39:48.964Z,3.20
2019-02-23T11:42:15.889Z,3.20
2019-02-23T11:44:42.562Z,2.67
2019-02-23T11:47:09.207Z,2.50
2019-02-23T11:49:36.034Z,2.57
2019-02-23T11:52:02.635Z,2.13
2019-02-23T11:54:29.434Z,2.07
2019-02-23T11:56:56.212Z,2.00
2019-02-23T11:59:23.163Z,1.70
2019-02-23T12:01:49.934Z,1.70
2019-02-23T12:04:16.542Z,2.20
2019-02-23T12:06:43.310Z,1.57
2019-02-23T12:09:10.285Z,1.80
2019-02-23T12:11:37.154Z,1.70
2019-02-23T12:14:03.908Z,1.90
2019-02-23T12:16:30.525Z,2.10
2019-02-23T12:18:57.349Z,1.53
2019-02-23T12:21:24.010Z,1.80
2019-02-23T12:23:50.668Z,2.13
2019-02-23T12:26:17.526Z,2.13
2019-02-23T12:28:44.664Z,1.90
2019-02-23T12:31:11.955Z,1.97
2019-02-23T12:33:38.625Z,1.67
2019-02-23T12:36:05.532Z,3.30
2019-02-23T12:38:32.197Z,1.70
2019-02-23T12:40:58.799Z,2.52
2019-02-23T12:43:25.789Z,2.07
2019-02-23T12:45:53.213Z,2.20
2019-02-23T12:48:19.837Z,2.43
2019-02-23T12:50:46.713Z,2.67
2019-02-23T12:53:13.492Z,1.53
2019-02-23T12:55:40.089Z,2.13
2019-02-23T12:58:06.816Z,1.93
2019-02-23T13:00:33.515Z,1.73
2019-02-23T13:03:00.127Z,2.07
2019-02-23T13:05:27.023Z,2.65
2019-02-23T13:07:55.686Z,2.37
2019-02-23T13:10:23.466Z,2.10
2019-02-23T13:12:50.040Z,2.17
2019-02-23T13:15:16.731Z,2.23
2019-02-23T13:17:43.347Z,2.50
2019-02-23T13:20:10.163Z,2.10
2019-02-23T13:22:36.799Z,2.27
2019-02-23T13:25:03.483Z,1.93
2019-02-23T13:27:30.218Z,2.40
2019-02-23T13:29:56.865Z,2.23
2019-02-23T13:32:23.791Z,7.43
2019-02-23T13:34:50.422Z,2.00
2019-02-23T13:37:17.124Z,2.13
2019-02-23T13:39:43.804Z,2.13
2019-02-23T13:42:10.631Z,1.87
2019-02-23T13:44:37.627Z,2.20
2019-02-23T13:47:04.592Z,1.87
2019-02-23T13:49:31.472Z,2.93
2019-02-23T13:51:58.711Z,2.42
2019-02-23T13:54:25.927Z,1.82
2019-02-23T13:56:54.079Z,2.08
2019-02-23T13:59:21.319Z,3.57
2019-02-23T14:01:47.922Z,1.80
2019-02-23T14:04:14.731Z,3.20
2019-02-23T14:06:41.465Z,2.00
2019-02-23T14:09:08.094Z,2.37
2019-02-23T14:11:35.024Z,1.57
2019-02-23T14:14:01.915Z,2.20
2019-02-23T14:16:28.860Z,2.94
2019-02-23T14:18:56.014Z,2.15
2019-02-23T14:21:24.539Z,2.76
2019-02-23T14:23:51.174Z,2.30
2019-02-23T14:26:18.059Z,1.80
2019-02-23T14:28:44.974Z,2.75
2019-02-23T14:31:11.561Z,1.60
2019-02-23T14:33:38.171Z,2.20
2019-02-23T14:36:05.178Z,2.53
2019-02-23T14:38:32.116Z,1.90
2019-02-23T14:40:59.814Z,2.00
2019-02-23T14:43:26.742Z,1.57
2019-02-23T14:45:54.593Z,1.82
2019-02-23T14:48:23.848Z,1.80
2019-02-23T14:50:51.726Z,1.80
2019-02-23T14:53:18.774Z,1.97
2019-02-23T14:55:47.928Z,2.17
2019-02-23T14:58:16.554Z,2.20
2019-02-23T15:00:44.567Z,4.30
2019-02-23T15:03:15.951Z,2.77
2019-02-23T15:05:45.579Z,2.00
2019-02-23T15:08:15.788Z,3.20
2019-02-23T15:13:29.085Z,2.13
2019-02-23T15:15:58.756Z,2.93
2019-02-23T15:18:27.118Z,2.50
2019-02-23T15:20:57.399Z,2.33
2019-02-23T15:23:25.334Z,2.03
2019-02-23T15:25:52.298Z,2.23
2019-02-23T15:28:35.660Z,2.73
2019-02-23T15:30:53.141Z,2.80
2019-02-23T15:33:21.315Z,2.97
2019-02-23T15:35:48.147Z,2.40
2019-02-23T15:38:15.123Z,2.57
2019-02-23T15:40:43.014Z,4.77
2019-02-23T15:43:23.660Z,2.43
2019-02-23T15:48:40.130Z,3.37
2019-02-23T15:51:07.684Z,2.60
2019-02-23T15:53:36.792Z,2.33
2019-02-23T15:56:04.250Z,2.90
2019-02-23T15:58:38.200Z,3.80
2019-02-23T16:01:07.558Z,2.70
2019-02-23T16:06:17.325Z,2.83
2019-02-23T16:08:44.245Z,2.50
2019-02-23T16:11:10.943Z,3.10
2019-02-23T16:13:37.587Z,2.57
2019-02-23T16:16:04.430Z,2.63
2019-02-23T16:18:31.472Z,3.58
2019-02-23T16:20:58.371Z,3.72
2019-02-23T16:23:34.901Z,2.72
2019-02-23T16:25:55.869Z,2.98
2019-02-23T16:28:22.522Z,2.80
2019-02-23T16:30:49.237Z,2.87
2019-02-23T16:33:15.916Z,5.83
2019-02-23T16:35:42.658Z,3.87
2019-02-23T16:38:09.522Z,3.00
2019-02-23T16:40:36.215Z,5.73
2019-02-23T16:43:02.884Z,3.07
2019-02-23T16:45:29.780Z,3.62
2019-02-23T16:47:57.056Z,3.70
2019-02-23T16:50:23.942Z,3.30
2019-02-23T16:52:50.967Z,4.67
2019-02-23T16:55:18.188Z,3.20
2019-02-23T16:57:45.033Z,4.50
2019-02-23T17:00:30.019Z,2.60
2019-02-23T17:02:57.207Z,4.00
2019-02-23T17:05:24.057Z,3.43
2019-02-23T17:07:50.646Z,5.20
2019-02-23T17:10:17.425Z,3.47
2019-02-23T17:12:44.173Z,4.10
2019-02-23T17:15:11.129Z,4.37
2019-02-23T17:17:37.774Z,3.07
2019-02-23T17:20:04.595Z,4.63
2019-02-23T17:22:32.023Z,4.83
2019-02-23T17:24:58.856Z,5.27
2019-02-23T17:27:35.782Z,6.45
2019-02-23T17:29:54.092Z,3.30
2019-02-23T17:32:21.048Z,4.73
2019-02-23T17:34:47.718Z,3.37
2019-02-23T17:37:14.451Z,5.27
2019-02-23T17:39:41.150Z,3.33
2019-02-23T17:42:09.572Z,4.48
2019-02-23T17:44:36.456Z,2.80
2019-02-23T17:47:03.761Z,5.50
2019-02-23T17:49:30.419Z,5.43
2019-02-23T17:51:57.228Z,7.00
2019-02-23T17:54:23.946Z,6.17
2019-02-23T17:56:50.659Z,8.37
2019-02-23T17:59:17.314Z,7.10
2019-02-23T18:01:44.061Z,7.97
2019-02-23T18:04:10.755Z,8.07
2019-02-23T18:06:37.588Z,6.43
2019-02-23T18:09:05.237Z,7.10
2019-02-23T18:11:31.885Z,6.70
2019-02-23T18:13:58.547Z,8.40
2019-02-23T18:16:25.177Z,6.47
2019-02-23T18:18:51.905Z,8.13
2019-02-23T18:21:18.663Z,7.63
2019-02-23T18:23:45.745Z,7.70
2019-02-23T18:26:18.990Z,7.73
2019-02-23T18:28:41.021Z,8.27
2019-02-23T18:31:07.897Z,7.30
2019-02-23T18:33:34.898Z,7.17
2019-02-23T18:36:01.826Z,7.67
2019-02-23T18:38:28.756Z,7.27
2019-02-23T18:40:55.411Z,8.00
2019-02-23T18:43:22.365Z,7.40
2019-02-23T18:45:49.010Z,9.53
2019-02-23T18:48:15.846Z,6.73
2019-02-23T18:50:42.452Z,6.33
2019-02-23T18:53:14.151Z,8.35
2019-02-23T18:55:41.418Z,6.93
2019-02-23T18:58:08.270Z,7.60
2019-02-23T19:00:35.010Z,20.20
2019-02-23T19:03:01.939Z,10.98
2019-02-23T19:05:28.637Z,8.57
2019-02-23T19:07:55.372Z,12.37
2019-02-23T19:10:22.271Z,11.73
2019-02-23T19:12:49.222Z,13.20
2019-02-23T19:15:16.612Z,17.52
2019-02-23T19:17:43.272Z,10.87
2019-02-23T19:20:10.692Z,14.28
2019-02-23T19:22:37.384Z,13.20
2019-02-23T19:25:04.334Z,17.87
2019-02-23T19:27:30.883Z,17.97
2019-02-23T19:29:57.547Z,14.43
2019-02-23T19:32:24.499Z,17.20
2019-02-23T19:34:51.397Z,16.40
2019-02-23T19:37:18.089Z,15.00
2019-02-23T19:39:44.880Z,19.30
2019-02-23T19:42:11.484Z,13.80
2019-02-23T19:44:39.744Z,14.47
2019-02-23T19:47:17.948Z,16.37
2019-02-23T19:49:46.531Z,19.30
2019-02-23T19:52:14.939Z,17.90
2019-02-23T19:54:59.441Z,17.40
2019-02-23T19:57:27.893Z,20.20
2019-02-23T20:00:05.612Z,19.50
2019-02-23T20:02:32.931Z,15.70
2019-02-23T20:04:59.738Z,13.05
2019-02-23T20:07:26.358Z,12.33
2019-02-23T20:09:53.003Z,14.43
2019-02-23T20:12:19.762Z,18.13
2019-02-23T20:14:46.444Z,13.73
2019-02-23T20:17:13.039Z,13.43
2019-02-23T20:19:41.186Z,16.05
2019-02-23T20:22:07.940Z,16.37
2019-02-23T20:24:36.781Z,15.23
2019-02-23T20:27:03.454Z,15.90
2019-02-23T20:29:30.424Z,13.67
2019-02-23T20:31:57.062Z,12.00
2019-02-23T20:34:23.980Z,12.63
2019-02-23T20:36:50.722Z,11.50
2019-02-23T20:39:17.387Z,11.37
2019-02-23T20:41:44.098Z,10.30
2019-02-23T20:44:11.757Z,10.32
2019-02-23T20:46:38.574Z,14.33
2019-02-23T20:49:05.256Z,13.23
2019-02-23T20:51:32.178Z,15.30
2019-02-23T20:53:58.820Z,9.37
2019-02-23T20:56:25.509Z,9.87
2019-02-23T20:58:52.376Z,13.90
2019-02-23T21:01:19.649Z,11.22
2019-02-23T21:03:46.593Z,13.70
2019-02-23T21:06:13.707Z,15.73
2019-02-23T21:08:42.340Z,13.98
2019-02-23T21:11:09.107Z,14.23
2019-02-23T21:13:35.775Z,11.53
2019-02-23T21:16:02.583Z,13.37
2019-02-23T21:18:29.692Z,13.07
2019-02-23T21:20:56.574Z,9.97
2019-02-23T21:23:23.201Z,11.53
2019-02-23T21:25:49.891Z,9.18
2019-02-23T21:28:16.590Z,10.80
2019-02-23T21:30:43.252Z,11.17
2019-02-23T21:33:09.840Z,12.23
2019-02-23T21:35:37.034Z,16.73
2019-02-23T21:38:03.904Z,15.90
2019-02-23T21:40:30.815Z,16.40
2019-02-23T21:42:58.102Z,13.30
2019-02-23T21:45:24.826Z,15.17
2019-02-23T21:47:51.746Z,18.20
2019-02-23T21:50:18.362Z,12.97
2019-02-23T21:52:47.393Z,13.90
2019-02-23T21:55:13.984Z,13.90
2019-02-23T21:57:42.453Z,12.12
2019-02-23T22:00:09.245Z,12.00
2019-02-23T22:02:36.026Z,10.93
2019-02-23T22:05:11.634Z,14.78
2019-02-23T22:07:31.349Z,9.93
2019-02-23T22:09:58.102Z,10.40
2019-02-23T22:12:25.053Z,12.07
2019-02-23T22:14:52.372Z,14.87
2019-02-23T22:17:19.258Z,13.30
2019-02-23T22:19:46.239Z,18.25
2019-02-23T22:22:13.189Z,13.20
2019-02-23T22:24:40.165Z,14.70
2019-02-23T22:27:07.077Z,17.32
2019-02-23T22:29:33.771Z,16.77
2019-02-23T22:32:00.421Z,18.27
2019-02-23T22:34:27.388Z,15.00
2019-02-23T22:36:54.611Z,17.70
2019-02-23T22:39:21.486Z,16.03
2019-02-23T22:41:49.865Z,15.05
2019-02-23T22:44:16.688Z,18.67
2019-02-23T22:46:43.458Z,16.40
2019-02-23T22:49:10.559Z,19.93
2019-02-23T22:51:37.875Z,15.37
2019-02-23T22:54:04.702Z,12.83
2019-02-23T22:56:31.613Z,12.93
2019-02-23T22:58:58.837Z,17.13
2019-02-23T23:01:25.680Z,17.43
2019-02-23T23:03:53.063Z,19.45
2019-02-23T23:06:19.792Z,19.80
2019-02-23T23:08:46.669Z,19.57
2019-02-23T23:11:13.872Z,20.33
2019-02-23T23:13:40.807Z,22.00
2019-02-23T23:16:07.937Z,19.80
2019-02-23T23:18:34.783Z,20.37
2019-02-23T23:21:01.734Z,17.07
2019-02-23T23:23:28.705Z,17.10
2019-02-23T23:25:55.901Z,15.72
2019-02-23T23:28:23.305Z,20.33
2019-02-23T23:30:49.963Z,14.43
2019-02-23T23:33:16.818Z,13.50
2019-02-23T23:35:43.911Z,15.83
2019-02-23T23:38:10.807Z,11.60
2019-02-23T23:40:37.686Z,13.03
2019-02-23T23:43:04.368Z,12.70
2019-02-23T23:45:31.052Z,12.17
2019-02-23T23:47:58.076Z,12.53
2019-02-23T23:50:25.078Z,12.53
2019-02-23T23:52:52.108Z,12.73
2019-02-23T23:55:20.951Z,16.23
2019-02-23T23:57:47.623Z,14.83
